sensor_id;sensor_type;location;lat;lon;timestamp;pressure;altitude;pressure_sealevel;temperature;humidity
11041;BME280;5573;49.592;8.662;2023-03-18T00:02:17;99389.94;;;13.51;60.19
11041;BME280;5573;49.592;8.662;2023-03-18T00:04:45;99390.78;;;13.48;58.00
11041;BME280;5573;49.592;8.662;2023-03-18T00:07:13;99391.81;;;13.61;57.54
11041;BME280;5573;49.592;8.662;2023-03-18T00:09:41;99385.84;;;13.66;57.82
11041;BME280;5573;49.592;8.662;2023-03-18T00:12:10;99389.50;;;13.56;62.34
11041;BME280;5573;49.592;8.662;2023-03-18T00:14:37;99391.84;;;13.57;58.86
11041;BME280;5573;49.592;8.662;2023-03-18T00:17:05;99400.44;;;13.67;58.24
11041;BME280;5573;49.592;8.662;2023-03-18T00:19:33;99404.31;;;13.73;58.61
11041;BME280;5573;49.592;8.662;2023-03-18T00:22:01;99393.78;;;13.60;57.81
11041;BME280;5573;49.592;8.662;2023-03-18T00:24:29;99399.31;;;13.60;61.70
11041;BME280;5573;49.592;8.662;2023-03-18T00:26:56;99393.66;;;13.37;64.55
11041;BME280;5573;49.592;8.662;2023-03-18T00:29:26;99403.97;;;13.26;61.07
11041;BME280;5573;49.592;8.662;2023-03-18T00:31:53;99405.22;;;13.21;59.62
11041;BME280;5573;49.592;8.662;2023-03-18T00:34:21;99413.31;;;13.42;58.54
11041;BME280;5573;49.592;8.662;2023-03-18T00:36:49;99410.81;;;13.55;56.72
11041;BME280;5573;49.592;8.662;2023-03-18T00:39:22;99378.84;;;13.54;56.35
11041;BME280;5573;49.592;8.662;2023-03-18T00:41:53;99396.78;;;13.77;55.95
11041;BME280;5573;49.592;8.662;2023-03-18T00:44:22;99421.56;;;13.84;60.53
11041;BME280;5573;49.592;8.662;2023-03-18T00:46:52;99426.47;;;13.69;59.32
11041;BME280;5573;49.592;8.662;2023-03-18T00:49:19;99428.13;;;13.59;62.39
11041;BME280;5573;49.592;8.662;2023-03-18T00:51:47;99419.69;;;13.36;57.77
11041;BME280;5573;49.592;8.662;2023-03-18T00:54:15;99415.03;;;13.29;63.51
11041;BME280;5573;49.592;8.662;2023-03-18T00:56:44;99424.38;;;13.42;57.54
11041;BME280;5573;49.592;8.662;2023-03-18T00:59:12;99419.06;;;13.59;56.66
11041;BME280;5573;49.592;8.662;2023-03-18T01:01:41;99420.44;;;13.40;64.05
11041;BME280;5573;49.592;8.662;2023-03-18T01:04:10;99420.09;;;13.34;61.08
11041;BME280;5573;49.592;8.662;2023-03-18T01:06:38;99415.91;;;13.15;65.86
11041;BME280;5573;49.592;8.662;2023-03-18T01:09:07;99411.25;;;13.09;67.93
11041;BME280;5573;49.592;8.662;2023-03-18T01:11:38;99413.69;;;13.03;70.29
11041;BME280;5573;49.592;8.662;2023-03-18T01:14:05;99422.38;;;12.98;68.11
11041;BME280;5573;49.592;8.662;2023-03-18T01:16:34;99418.91;;;12.90;70.67
11041;BME280;5573;49.592;8.662;2023-03-18T01:19:02;99412.56;;;12.93;60.16
11041;BME280;5573;49.592;8.662;2023-03-18T01:21:32;99422.16;;;13.23;60.42
11041;BME280;5573;49.592;8.662;2023-03-18T01:24:00;99415.34;;;13.38;58.75
11041;BME280;5573;49.592;8.662;2023-03-18T01:26:32;99417.19;;;13.49;58.69
11041;BME280;5573;49.592;8.662;2023-03-18T01:29:00;99421.19;;;13.48;59.91
11041;BME280;5573;49.592;8.662;2023-03-18T01:31:30;99416.50;;;13.41;62.21
11041;BME280;5573;49.592;8.662;2023-03-18T01:34:04;99424.81;;;13.37;62.72
11041;BME280;5573;49.592;8.662;2023-03-18T01:36:43;99431.22;;;13.31;63.04
11041;BME280;5573;49.592;8.662;2023-03-18T01:39:12;99419.44;;;13.19;60.89
11041;BME280;5573;49.592;8.662;2023-03-18T01:41:40;99427.66;;;13.27;60.09
11041;BME280;5573;49.592;8.662;2023-03-18T01:44:14;99431.53;;;13.36;60.40
11041;BME280;5573;49.592;8.662;2023-03-18T01:46:45;99417.81;;;13.29;65.66
11041;BME280;5573;49.592;8.662;2023-03-18T01:49:17;99419.44;;;13.19;65.84
11041;BME280;5573;49.592;8.662;2023-03-18T01:51:51;99409.41;;;12.95;70.86
11041;BME280;5573;49.592;8.662;2023-03-18T01:54:21;99413.06;;;12.81;71.31
11041;BME280;5573;49.592;8.662;2023-03-18T01:56:49;99412.31;;;12.77;72.67
11041;BME280;5573;49.592;8.662;2023-03-18T01:59:21;99414.25;;;12.80;72.12
11041;BME280;5573;49.592;8.662;2023-03-18T02:01:53;99417.91;;;12.63;76.65
11041;BME280;5573;49.592;8.662;2023-03-18T02:04:26;99406.56;;;12.50;75.70
11041;BME280;5573;49.592;8.662;2023-03-18T02:06:58;99412.91;;;12.50;77.35
11041;BME280;5573;49.592;8.662;2023-03-18T02:09:26;99409.72;;;12.52;78.68
11041;BME280;5573;49.592;8.662;2023-03-18T02:11:55;99404.28;;;12.37;76.24
11041;BME280;5573;49.592;8.662;2023-03-18T02:14:24;99392.84;;;12.39;74.68
11041;BME280;5573;49.592;8.662;2023-03-18T02:17:00;99389.38;;;12.31;79.17
11041;BME280;5573;49.592;8.662;2023-03-18T02:19:49;99380.44;;;12.09;84.92
11041;BME280;5573;49.592;8.662;2023-03-18T02:22:28;99385.94;;;12.13;85.56
11041;BME280;5573;49.592;8.662;2023-03-18T02:25:08;99378.09;;;12.04;88.14
11041;BME280;5573;49.592;8.662;2023-03-18T02:27:42;99388.34;;;12.04;87.77
11041;BME280;5573;49.592;8.662;2023-03-18T02:30:15;99392.34;;;11.95;89.82
11041;BME280;5573;49.592;8.662;2023-03-18T02:32:47;99396.28;;;11.80;90.33
11041;BME280;5573;49.592;8.662;2023-03-18T02:35:17;99387.34;;;11.54;88.83
11041;BME280;5573;49.592;8.662;2023-03-18T02:37:47;99399.84;;;11.73;88.69
11041;BME280;5573;49.592;8.662;2023-03-18T02:40:19;99400.25;;;11.79;89.42
11041;BME280;5573;49.592;8.662;2023-03-18T02:42:48;99406.91;;;11.82;88.59
11041;BME280;5573;49.592;8.662;2023-03-18T02:45:30;99410.16;;;11.58;88.90
11041;BME280;5573;49.592;8.662;2023-03-18T02:48:11;99413.63;;;11.73;90.56
11041;BME280;5573;49.592;8.662;2023-03-18T02:50:41;99419.19;;;11.59;87.56
11041;BME280;5573;49.592;8.662;2023-03-18T02:53:11;99412.91;;;11.58;87.09
11041;BME280;5573;49.592;8.662;2023-03-18T02:55:39;99412.47;;;11.67;89.40
11041;BME280;5573;49.592;8.662;2023-03-18T02:58:09;99409.75;;;11.56;89.45
11041;BME280;5573;49.592;8.662;2023-03-18T03:00:38;99404.25;;;11.60;89.95
11041;BME280;5573;49.592;8.662;2023-03-18T03:03:06;99406.25;;;11.42;92.56
11041;BME280;5573;49.592;8.662;2023-03-18T03:05:34;99392.91;;;11.26;94.58
11041;BME280;5573;49.592;8.662;2023-03-18T03:08:02;99412.53;;;11.42;93.83
11041;BME280;5573;49.592;8.662;2023-03-18T03:10:35;99419.59;;;11.47;94.02
11041;BME280;5573;49.592;8.662;2023-03-18T03:13:05;99407.84;;;11.25;87.86
11041;BME280;5573;49.592;8.662;2023-03-18T03:15:34;99416.47;;;11.55;90.06
11041;BME280;5573;49.592;8.662;2023-03-18T03:18:02;99403.09;;;11.50;94.41
11041;BME280;5573;49.592;8.662;2023-03-18T03:20:30;99410.56;;;11.46;95.24
11041;BME280;5573;49.592;8.662;2023-03-18T03:23:01;99422.75;;;11.52;94.47
11041;BME280;5573;49.592;8.662;2023-03-18T03:25:29;99422.34;;;11.50;93.12
11041;BME280;5573;49.592;8.662;2023-03-18T03:27:57;99424.34;;;11.53;88.44
11041;BME280;5573;49.592;8.662;2023-03-18T03:30:26;99385.06;;;11.24;86.16
11041;BME280;5573;49.592;8.662;2023-03-18T03:32:58;99430.22;;;11.63;85.62
11041;BME280;5573;49.592;8.662;2023-03-18T03:35:27;99436.53;;;11.59;88.20
11041;BME280;5573;49.592;8.662;2023-03-18T03:37:54;99429.03;;;11.60;90.50
11041;BME280;5573;49.592;8.662;2023-03-18T03:40:23;99434.16;;;11.62;88.47
11041;BME280;5573;49.592;8.662;2023-03-18T03:42:51;99431.00;;;11.56;88.50
11041;BME280;5573;49.592;8.662;2023-03-18T03:45:19;99436.13;;;11.54;86.45
11041;BME280;5573;49.592;8.662;2023-03-18T03:47:47;99433.38;;;11.54;86.75
11041;BME280;5573;49.592;8.662;2023-03-18T03:50:17;99392.47;;;11.38;77.70
11041;BME280;5573;49.592;8.662;2023-03-18T03:52:44;99431.75;;;11.71;85.10
11041;BME280;5573;49.592;8.662;2023-03-18T03:55:14;99438.88;;;11.57;85.46
11041;BME280;5573;49.592;8.662;2023-03-18T03:57:43;99439.66;;;11.58;84.10
11041;BME280;5573;49.592;8.662;2023-03-18T04:00:13;99436.84;;;11.76;81.96
11041;BME280;5573;49.592;8.662;2023-03-18T04:02:47;99440.78;;;11.89;78.16
11041;BME280;5573;49.592;8.662;2023-03-18T04:05:19;99436.44;;;11.92;81.04
11041;BME280;5573;49.592;8.662;2023-03-18T04:07:50;99445.47;;;11.96;82.40
11041;BME280;5573;49.592;8.662;2023-03-18T04:10:23;99454.16;;;11.91;83.82
11041;BME280;5573;49.592;8.662;2023-03-18T04:12:52;99453.34;;;11.87;80.21
11041;BME280;5573;49.592;8.662;2023-03-18T04:15:20;99451.41;;;11.80;80.55
11041;BME280;5573;49.592;8.662;2023-03-18T04:17:51;99451.41;;;11.80;80.10
11041;BME280;5573;49.592;8.662;2023-03-18T04:20:20;99450.59;;;11.87;83.75
11041;BME280;5573;49.592;8.662;2023-03-18T04:22:49;99447.88;;;11.76;83.53
11041;BME280;5573;49.592;8.662;2023-03-18T04:25:19;99404.66;;;11.48;87.70
11041;BME280;5573;49.592;8.662;2023-03-18T04:27:50;99440.88;;;11.46;85.89
11041;BME280;5573;49.592;8.662;2023-03-18T04:30:19;99450.69;;;11.62;87.62
11041;BME280;5573;49.592;8.662;2023-03-18T04:33:08;99443.25;;;11.33;88.21
11041;BME280;5573;49.592;8.662;2023-03-18T04:35:40;99436.16;;;11.43;89.50
11041;BME280;5573;49.592;8.662;2023-03-18T04:38:10;99438.91;;;11.36;89.26
11041;BME280;5573;49.592;8.662;2023-03-18T04:40:38;99440.88;;;11.32;89.10
11041;BME280;5573;49.592;8.662;2023-03-18T04:43:06;99439.72;;;11.36;85.94
11041;BME280;5573;49.592;8.662;2023-03-18T04:45:35;99440.88;;;11.35;86.07
11041;BME280;5573;49.592;8.662;2023-03-18T04:48:04;99431.84;;;11.31;81.21
11041;BME280;5573;49.592;8.662;2023-03-18T04:50:36;99450.28;;;11.56;83.81
11041;BME280;5573;49.592;8.662;2023-03-18T04:53:09;99447.53;;;11.52;85.00
11041;BME280;5573;49.592;8.662;2023-03-18T04:55:37;99451.47;;;11.55;82.92
11041;BME280;5573;49.592;8.662;2023-03-18T04:58:07;99455.41;;;11.50;84.22
11041;BME280;5573;49.592;8.662;2023-03-18T05:00:39;99461.72;;;11.40;78.57
11041;BME280;5573;49.592;8.662;2023-03-18T05:03:19;99466.44;;;11.50;78.36
11041;BME280;5573;49.592;8.662;2023-03-18T05:05:48;99460.50;;;11.66;72.12
11041;BME280;5573;49.592;8.662;2023-03-18T05:08:21;99457.72;;;11.70;78.18
11041;BME280;5573;49.592;8.662;2023-03-18T05:10:49;99456.19;;;11.54;81.68
11041;BME280;5573;49.592;8.662;2023-03-18T05:13:18;99451.91;;;11.35;83.47
11041;BME280;5573;49.592;8.662;2023-03-18T05:15:46;99457.81;;;11.23;81.90
11041;BME280;5573;49.592;8.662;2023-03-18T05:18:14;99457.81;;;11.05;85.79
11041;BME280;5573;49.592;8.662;2023-03-18T05:20:46;99460.56;;;10.98;86.67
11041;BME280;5573;49.592;8.662;2023-03-18T05:23:16;99464.50;;;10.90;88.81
11041;BME280;5573;49.592;8.662;2023-03-18T05:25:53;99467.25;;;10.97;82.39
11041;BME280;5573;49.592;8.662;2023-03-18T05:28:24;99466.47;;;10.96;90.56
11041;BME280;5573;49.592;8.662;2023-03-18T05:31:18;99464.88;;;10.92;79.76
11041;BME280;5573;49.592;8.662;2023-03-18T05:33:46;99463.31;;;11.37;65.08
11041;BME280;5573;49.592;8.662;2023-03-18T05:36:15;99469.50;;;11.85;62.19
11041;BME280;5573;49.592;8.662;2023-03-18T05:38:53;99473.78;;;12.14;60.22
11041;BME280;5573;49.592;8.662;2023-03-18T05:41:23;99471.75;;;12.22;60.21
11041;BME280;5573;49.592;8.662;2023-03-18T05:43:51;99470.97;;;12.18;60.45
11041;BME280;5573;49.592;8.662;2023-03-18T05:46:19;99471.69;;;12.40;57.56
11041;BME280;5573;49.592;8.662;2023-03-18T05:48:57;99479.91;;;12.44;56.57
11041;BME280;5573;49.592;8.662;2023-03-18T05:51:30;99481.38;;;12.63;58.34
11041;BME280;5573;49.592;8.662;2023-03-18T05:53:59;99479.50;;;12.49;59.03
11041;BME280;5573;49.592;8.662;2023-03-18T05:56:32;99471.63;;;12.51;60.14
11041;BME280;5573;49.592;8.662;2023-03-18T05:59:04;99477.59;;;12.38;64.84
11041;BME280;5573;49.592;8.662;2023-03-18T06:01:44;99433.31;;;11.90;65.21
11041;BME280;5573;49.592;8.662;2023-03-18T06:04:12;99481.22;;;12.17;58.27
11041;BME280;5573;49.592;8.662;2023-03-18T06:06:40;99476.38;;;12.39;58.22
11041;BME280;5573;49.592;8.662;2023-03-18T06:09:10;99481.94;;;12.32;57.86
11041;BME280;5573;49.592;8.662;2023-03-18T06:11:43;99487.41;;;12.39;57.33
11041;BME280;5573;49.592;8.662;2023-03-18T06:14:11;99489.56;;;12.80;55.40
11041;BME280;5573;49.592;8.662;2023-03-18T06:16:40;99486.72;;;12.91;54.67
11041;BME280;5573;49.592;8.662;2023-03-18T06:19:10;99496.16;;;12.97;54.11
11041;BME280;5573;49.592;8.662;2023-03-18T06:21:39;99493.31;;;13.05;54.50
11041;BME280;5573;49.592;8.662;2023-03-18T06:24:07;99486.56;;;13.13;56.12
11041;BME280;5573;49.592;8.662;2023-03-18T06:26:37;99485.41;;;13.10;54.94
11041;BME280;5573;49.592;8.662;2023-03-18T06:29:07;99491.88;;;12.89;55.48
11041;BME280;5573;49.592;8.662;2023-03-18T06:31:37;99495.63;;;13.13;55.02
11041;BME280;5573;49.592;8.662;2023-03-18T06:34:07;99497.22;;;13.11;56.29
11041;BME280;5573;49.592;8.662;2023-03-18T06:36:37;99496.81;;;13.12;54.07
11041;BME280;5573;49.592;8.662;2023-03-18T06:39:10;99500.66;;;13.26;55.17
11041;BME280;5573;49.592;8.662;2023-03-18T06:41:40;99501.03;;;13.35;54.02
11041;BME280;5573;49.592;8.662;2023-03-18T06:44:29;99500.56;;;13.40;53.49
11041;BME280;5573;49.592;8.662;2023-03-18T06:47:06;99495.81;;;13.44;53.23
11041;BME280;5573;49.592;8.662;2023-03-18T06:49:37;99490.34;;;13.37;53.50
11041;BME280;5573;49.592;8.662;2023-03-18T06:52:11;99499.84;;;13.32;54.86
11041;BME280;5573;49.592;8.662;2023-03-18T06:54:41;99498.91;;;13.01;55.52
11041;BME280;5573;49.592;8.662;2023-03-18T06:57:10;99505.97;;;13.06;55.03
11041;BME280;5573;49.592;8.662;2023-03-18T06:59:39;99506.31;;;13.11;53.87
11041;BME280;5573;49.592;8.662;2023-03-18T07:02:08;99504.72;;;13.14;54.73
11041;BME280;5573;49.592;8.662;2023-03-18T07:04:36;99487.78;;;13.08;53.35
11041;BME280;5573;49.592;8.662;2023-03-18T07:07:04;99508.84;;;13.40;55.64
11041;BME280;5573;49.592;8.662;2023-03-18T07:09:34;99512.03;;;13.38;55.51
11041;BME280;5573;49.592;8.662;2023-03-18T07:12:03;99511.41;;;13.13;55.00
11041;BME280;5573;49.592;8.662;2023-03-18T07:14:31;99520.38;;;13.31;53.58
11041;BME280;5573;49.592;8.662;2023-03-18T07:17:01;99516.72;;;13.45;54.42
11041;BME280;5573;49.592;8.662;2023-03-18T07:19:29;99521.06;;;13.42;54.18
11041;BME280;5573;49.592;8.662;2023-03-18T07:21:58;99528.59;;;13.38;53.37
11041;BME280;5573;49.592;8.662;2023-03-18T07:24:27;99522.16;;;13.56;53.84
11041;BME280;5573;49.592;8.662;2023-03-18T07:26:55;99527.56;;;13.67;53.18
11041;BME280;5573;49.592;8.662;2023-03-18T07:29:24;99538.56;;;13.74;53.01
11041;BME280;5573;49.592;8.662;2023-03-18T07:31:51;99534.19;;;13.76;53.43
11041;BME280;5573;49.592;8.662;2023-03-18T07:34:20;99538.41;;;13.88;52.67
11041;BME280;5573;49.592;8.662;2023-03-18T07:36:48;99534.34;;;14.00;53.71
11041;BME280;5573;49.592;8.662;2023-03-18T07:39:16;99541.28;;;13.81;53.56
11041;BME280;5573;49.592;8.662;2023-03-18T07:41:44;99542.06;;;13.78;53.47
11041;BME280;5573;49.592;8.662;2023-03-18T07:44:19;99540.56;;;14.08;52.46
11041;BME280;5573;49.592;8.662;2023-03-18T07:46:47;99548.31;;;14.23;51.75
11041;BME280;5573;49.592;8.662;2023-03-18T07:49:14;99544.34;;;14.24;51.09
11041;BME280;5573;49.592;8.662;2023-03-18T07:51:43;99548.91;;;14.42;50.70
11041;BME280;5573;49.592;8.662;2023-03-18T07:54:11;99549.72;;;14.39;51.54
11041;BME280;5573;49.592;8.662;2023-03-18T07:56:39;99546.91;;;14.42;51.66
11041;BME280;5573;49.592;8.662;2023-03-18T07:59:07;99545.56;;;14.54;50.06
11041;BME280;5573;49.592;8.662;2023-03-18T08:01:35;99548.75;;;14.53;50.46
11041;BME280;5573;49.592;8.662;2023-03-18T08:04:04;99548.59;;;14.67;50.74
11041;BME280;5573;49.592;8.662;2023-03-18T08:06:32;99543.16;;;14.60;50.32
11041;BME280;5573;49.592;8.662;2023-03-18T08:09:02;99477.34;;;14.10;49.95
11041;BME280;5573;49.592;8.662;2023-03-18T08:11:30;99541.00;;;14.71;50.58
11041;BME280;5573;49.592;8.662;2023-03-18T08:13:59;99536.13;;;14.82;51.97
11041;BME280;5573;49.592;8.662;2023-03-18T08:16:27;99540.63;;;15.00;48.78
11041;BME280;5573;49.592;8.662;2023-03-18T08:18:55;99543.13;;;14.91;47.57
11041;BME280;5573;49.592;8.662;2023-03-18T08:21:22;99541.09;;;14.95;47.19
11041;BME280;5573;49.592;8.662;2023-03-18T08:23:50;99539.06;;;14.99;47.92
11041;BME280;5573;49.592;8.662;2023-03-18T08:26:19;99553.16;;;15.08;47.97
11041;BME280;5573;49.592;8.662;2023-03-18T08:28:46;99548.97;;;14.96;48.67
11041;BME280;5573;49.592;8.662;2023-03-18T08:31:14;99545.84;;;15.21;48.61
11041;BME280;5573;49.592;8.662;2023-03-18T08:33:42;99550.19;;;15.22;48.21
11041;BME280;5573;49.592;8.662;2023-03-18T08:36:09;99555.81;;;15.15;48.29
11041;BME280;5573;49.592;8.662;2023-03-18T08:38:37;99558.63;;;15.39;48.66
11041;BME280;5573;49.592;8.662;2023-03-18T08:41:05;99538.91;;;15.10;48.18
11041;BME280;5573;49.592;8.662;2023-03-18T08:43:34;99571.81;;;15.31;48.78
11041;BME280;5573;49.592;8.662;2023-03-18T08:46:04;99559.41;;;15.39;47.61
11041;BME280;5573;49.592;8.662;2023-03-18T08:48:32;99562.91;;;15.67;49.08
11041;BME280;5573;49.592;8.662;2023-03-18T08:51:02;99558.19;;;15.64;48.50
11041;BME280;5573;49.592;8.662;2023-03-18T08:53:30;99569.44;;;15.57;47.99
11041;BME280;5573;49.592;8.662;2023-03-18T08:55:58;99554.50;;;15.74;47.69
11041;BME280;5573;49.592;8.662;2023-03-18T08:58:28;99550.31;;;15.62;48.74
11041;BME280;5573;49.592;8.662;2023-03-18T09:00:57;99554.13;;;15.72;48.21
11041;BME280;5573;49.592;8.662;2023-03-18T09:03:25;99549.41;;;15.93;48.21
11041;BME280;5573;49.592;8.662;2023-03-18T09:05:52;99564.25;;;15.82;47.19
11041;BME280;5573;49.592;8.662;2023-03-18T09:08:21;99556.84;;;15.76;47.62
11041;BME280;5573;49.592;8.662;2023-03-18T09:10:50;99563.03;;;16.07;47.60
11041;BME280;5573;49.592;8.662;2023-03-18T09:13:19;99562.88;;;15.94;47.16
11041;BME280;5573;49.592;8.662;2023-03-18T09:15:46;99562.09;;;16.14;46.03
11041;BME280;5573;49.592;8.662;2023-03-18T09:18:16;99561.75;;;16.12;46.97
11041;BME280;5573;49.592;8.662;2023-03-18T09:20:45;99564.00;;;16.17;46.17
11041;BME280;5573;49.592;8.662;2023-03-18T09:23:13;99481.63;;;15.74;46.79
11041;BME280;5573;49.592;8.662;2023-03-18T09:25:44;99554.78;;;16.23;46.64
11041;BME280;5573;49.592;8.662;2023-03-18T09:28:12;99550.13;;;16.17;45.94
11041;BME280;5573;49.592;8.662;2023-03-18T09:30:40;99551.22;;;16.43;44.52
11041;BME280;5573;49.592;8.662;2023-03-18T09:33:08;99548.16;;;16.57;46.41
11041;BME280;5573;49.592;8.662;2023-03-18T09:35:38;99543.94;;;16.69;43.67
11041;BME280;5573;49.592;8.662;2023-03-18T09:38:06;99537.78;;;16.78;44.19
11041;BME280;5573;49.592;8.662;2023-03-18T09:40:36;99529.16;;;16.92;43.45
11041;BME280;5573;49.592;8.662;2023-03-18T09:43:15;99532.00;;;16.89;45.13
11041;BME280;5573;49.592;8.662;2023-03-18T09:45:55;99531.69;;;17.03;42.44
11041;BME280;5573;49.592;8.662;2023-03-18T09:48:43;99538.50;;;16.82;43.93
11041;BME280;5573;49.592;8.662;2023-03-18T09:51:26;99527.88;;;16.97;44.78
11041;BME280;5573;49.592;8.662;2023-03-18T09:54:02;99531.53;;;17.26;44.57
11041;BME280;5573;49.592;8.662;2023-03-18T09:56:33;99542.50;;;17.34;43.59
11041;BME280;5573;49.592;8.662;2023-03-18T09:59:05;99535.44;;;17.62;44.09
11041;BME280;5573;49.592;8.662;2023-03-18T10:01:38;99528.38;;;17.90;43.88
11041;BME280;5573;49.592;8.662;2023-03-18T10:04:13;99529.28;;;17.38;43.78
11041;BME280;5573;49.592;8.662;2023-03-18T10:06:46;99529.50;;;16.94;45.14
11041;BME280;5573;49.592;8.662;2023-03-18T10:09:18;99521.84;;;16.82;43.42
11041;BME280;5573;49.592;8.662;2023-03-18T10:11:50;99521.22;;;16.74;44.55
11041;BME280;5573;49.592;8.662;2023-03-18T10:14:31;99515.19;;;16.96;45.78
11041;BME280;5573;49.592;8.662;2023-03-18T10:17:07;99521.63;;;17.09;45.11
11041;BME280;5573;49.592;8.662;2023-03-18T10:19:41;99527.03;;;17.16;44.60
11041;BME280;5573;49.592;8.662;2023-03-18T10:22:22;99530.06;;;17.05;44.88
11041;BME280;5573;49.592;8.662;2023-03-18T10:25:01;99531.88;;;17.28;45.81
11041;BME280;5573;49.592;8.662;2023-03-18T10:27:39;99528.75;;;17.59;45.18
11041;BME280;5573;49.592;8.662;2023-03-18T10:30:23;99524.56;;;17.84;44.82
11041;BME280;5573;49.592;8.662;2023-03-18T10:33:01;99525.38;;;17.97;43.95
11041;BME280;5573;49.592;8.662;2023-03-18T10:35:36;99520.91;;;17.71;43.33
11041;BME280;5573;49.592;8.662;2023-03-18T10:38:16;99533.41;;;17.62;43.57
11041;BME280;5573;49.592;8.662;2023-03-18T10:40:45;99518.47;;;17.89;43.89
11041;BME280;5573;49.592;8.662;2023-03-18T10:43:16;99521.25;;;17.89;42.35
11041;BME280;5573;49.592;8.662;2023-03-18T10:45:45;99521.09;;;18.09;42.68
11041;BME280;5573;49.592;8.662;2023-03-18T10:48:18;99514.47;;;17.90;42.87
11041;BME280;5573;49.592;8.662;2023-03-18T10:50:53;99507.03;;;18.00;43.19
11041;BME280;5573;49.592;8.662;2023-03-18T10:53:33;99507.50;;;17.98;42.45
11041;BME280;5573;49.592;8.662;2023-03-18T10:56:07;99517.41;;;18.41;42.27
11041;BME280;5573;49.592;8.662;2023-03-18T10:58:36;99527.97;;;18.46;42.38
11041;BME280;5573;49.592;8.662;2023-03-18T11:01:05;99522.00;;;18.61;42.86
11041;BME280;5573;49.592;8.662;2023-03-18T11:03:37;99518.88;;;18.59;43.46
11041;BME280;5573;49.592;8.662;2023-03-18T11:06:15;99513.69;;;18.86;42.44
11041;BME280;5573;49.592;8.662;2023-03-18T11:08:47;99524.59;;;19.19;42.95
11041;BME280;5573;49.592;8.662;2023-03-18T11:11:22;99516.47;;;18.99;42.43
11041;BME280;5573;49.592;8.662;2023-03-18T11:13:53;99519.94;;;18.91;42.94
11041;BME280;5573;49.592;8.662;2023-03-18T11:16:29;99498.19;;;19.11;40.51
11041;BME280;5573;49.592;8.662;2023-03-18T11:18:57;99508.66;;;19.07;41.27
11041;BME280;5573;49.592;8.662;2023-03-18T11:21:26;99517.59;;;19.02;41.66
11041;BME280;5573;49.592;8.662;2023-03-18T11:23:57;99510.88;;;18.99;42.31
11041;BME280;5573;49.592;8.662;2023-03-18T11:26:47;99510.41;;;19.26;41.02
11041;BME280;5573;49.592;8.662;2023-03-18T11:29:21;99505.50;;;19.30;41.08
11041;BME280;5573;49.592;8.662;2023-03-18T11:31:52;99499.47;;;19.45;40.58
11041;BME280;5573;49.592;8.662;2023-03-18T11:34:24;99504.38;;;19.41;41.66
11041;BME280;5573;49.592;8.662;2023-03-18T11:36:54;99505.78;;;19.58;42.18
11041;BME280;5573;49.592;8.662;2023-03-18T11:39:28;99503.31;;;19.60;41.60
11041;BME280;5573;49.592;8.662;2023-03-18T11:41:57;99495.03;;;19.35;40.28
11041;BME280;5573;49.592;8.662;2023-03-18T11:44:30;99507.44;;;18.95;42.15
11041;BME280;5573;49.592;8.662;2023-03-18T11:47:02;99491.16;;;19.19;41.53
11041;BME280;5573;49.592;8.662;2023-03-18T11:49:31;99448.19;;;19.29;40.90
11041;BME280;5573;49.592;8.662;2023-03-18T11:52:24;99497.41;;;19.58;41.11
11041;BME280;5573;49.592;8.662;2023-03-18T11:55:24;99495.41;;;19.59;41.54
11041;BME280;5573;49.592;8.662;2023-03-18T11:58:15;99500.41;;;19.16;42.03
11041;BME280;5573;49.592;8.662;2023-03-18T12:00:54;99485.13;;;19.21;39.89
11041;BME280;5573;49.592;8.662;2023-03-18T12:03:50;99490.06;;;19.04;41.36
11041;BME280;5573;49.592;8.662;2023-03-18T12:06:22;99488.56;;;19.38;40.15
11041;BME280;5573;49.592;8.662;2023-03-18T12:08:59;99478.53;;;19.62;41.88
11041;BME280;5573;49.592;8.662;2023-03-18T12:11:44;99487.34;;;19.74;42.02
11041;BME280;5573;49.592;8.662;2023-03-18T12:14:19;99463.84;;;19.49;40.98
11041;BME280;5573;49.592;8.662;2023-03-18T12:16:58;99477.91;;;19.45;40.18
11041;BME280;5573;49.592;8.662;2023-03-18T12:19:43;99466.34;;;19.69;40.08
11041;BME280;5573;49.592;8.662;2023-03-18T12:22:24;99469.72;;;19.99;40.63
11041;BME280;5573;49.592;8.662;2023-03-18T12:25:06;99467.09;;;20.04;41.14
11041;BME280;5573;49.592;8.662;2023-03-18T12:27:47;99463.47;;;20.17;39.46
11041;BME280;5573;49.592;8.662;2023-03-18T12:30:34;99462.25;;;19.96;39.97
11041;BME280;5573;49.592;8.662;2023-03-18T12:33:15;99460.09;;;20.00;40.57
11041;BME280;5573;49.592;8.662;2023-03-18T12:35:54;99450.50;;;20.01;39.53
11041;BME280;5573;49.592;8.662;2023-03-18T12:38:41;99446.72;;;20.17;39.80
11041;BME280;5573;49.592;8.662;2023-03-18T12:41:14;99449.44;;;19.85;40.66
11041;BME280;5573;49.592;8.662;2023-03-18T12:43:58;99452.88;;;19.67;40.79
11041;BME280;5573;49.592;8.662;2023-03-18T12:46:32;99457.94;;;19.47;40.16
11041;BME280;5573;49.592;8.662;2023-03-18T12:49:03;99447.50;;;19.60;40.50
11041;BME280;5573;49.592;8.662;2023-03-18T12:51:41;99458.84;;;19.79;40.00
11041;BME280;5573;49.592;8.662;2023-03-18T12:54:16;99448.72;;;19.72;39.97
11041;BME280;5573;49.592;8.662;2023-03-18T12:56:45;99440.63;;;19.52;40.67
11041;BME280;5573;49.592;8.662;2023-03-18T12:59:24;99449.44;;;19.85;39.61
11041;BME280;5573;49.592;8.662;2023-03-18T13:02:04;99458.56;;;19.64;40.17
11041;BME280;5573;49.592;8.662;2023-03-18T13:04:41;99449.84;;;19.97;39.03
11041;BME280;5573;49.592;8.662;2023-03-18T13:07:19;99445.63;;;19.70;39.42
11041;BME280;5573;49.592;8.662;2023-03-18T13:09:52;99444.84;;;20.14;40.08
11041;BME280;5573;49.592;8.662;2023-03-18T13:12:26;99439.81;;;20.30;38.78
11041;BME280;5573;49.592;8.662;2023-03-18T13:15:00;99438.09;;;20.24;39.65
11041;BME280;5573;49.592;8.662;2023-03-18T13:17:31;99439.06;;;20.08;39.93
11041;BME280;5573;49.592;8.662;2023-03-18T13:20:00;99437.25;;;20.14;39.84
11041;BME280;5573;49.592;8.662;2023-03-18T13:22:57;99434.00;;;20.16;39.87
11041;BME280;5573;49.592;8.662;2023-03-18T13:25:33;99427.28;;;20.35;40.09
11041;BME280;5573;49.592;8.662;2023-03-18T13:28:12;99429.44;;;20.40;38.98
11041;BME280;5573;49.592;8.662;2023-03-18T13:30:55;99424.47;;;20.35;39.84
11041;BME280;5573;49.592;8.662;2023-03-18T13:36:39;99419.56;;;20.48;39.76
11041;BME280;5573;49.592;8.662;2023-03-18T13:39:18;99430.06;;;20.35;39.14